• Join FlightAware (Why Join?)
  • Login
  • US Flag 
10:14PM EST


 

Airport Tracker/Info


-or-


 

Live Flight TrackerFlight Track Log ✈ UPS2916 ✈ 09-Apr-2014 ✈ KSDF - KLGB

Flight Track Log - Related Links

Times and Time Zones

All times are in EDT time to prevent confusion due to time zone crossing. See the UPS2916 flight status page for this flight to view local times or setup timezone preferences in your user account.

Time Position Orientation Groundspeed Altitude Reporting Facility
EDT Latitude Longitude Course Direction KTS MPH feet Rate Location/Type
04:28PM 38.0713 -85.9713 266° West 285 328 11,100  Level FlightAware ADS-B
04:29PM 38.0691 -86.0247 266° West 334 384 11,600 1,754 Climbing FlightAware ADS-B (EPWR / WRO)
04:29PM 38.0670 -86.0570 265° West 365 420 13,000 3,000 Climbing FlightAware ADS-B (EPWR / WRO)
04:31PM 38.0535 -86.2678 266° West 390 449 17,200 3,186 Climbing FlightAware ADS-B
04:31PM 38.0512 -86.3087 264° West 403 464 19,000 2,961 Climbing FlightAware ADS-B
04:32PM 38.0504 -86.3220 264° West 411 473 21,000 2,630 Climbing FlightAware ADS-B (EPWR / WRO)
04:32PM 38.0419 -86.4276 263° West 417 480 22,200 2,451 Climbing FlightAware ADS-B
04:33PM 38.0248 -86.6239 264° West 432 497 23,900 2,582 Climbing FlightAware ADS-B
04:34PM 38.0166 -86.7245 264° West 440 506 25,600 2,333 Climbing FlightAware ADS-B
04:34PM 38.0112 -86.7921 264° West 447 514 26,700 2,000 Climbing FlightAware ADS-B
04:35PM 38.0034 -86.8877 264° West 453 521 27,700 2,357 Climbing FlightAware ADS-B
04:36PM 37.9854 -87.1045 264° West 450 518 31,100 2,150 Climbing FlightAware ADS-B
04:37PM 37.9775 -87.1983 264° West 453 521 32,000 740 Climbing FlightAware ADS-B
04:37PM 37.9692 -87.2963 264° West 458 527 32,000  Level FlightAware ADS-B
04:38PM 37.9598 -87.4014 264° West 459 528 32,000  Level FlightAware ADS-B
04:39PM 37.9511 -87.5032 264° West 459 528 32,000  Level FlightAware ADS-B
04:39PM 37.9410 -87.6195 264° West 458 527 32,000  Level FlightAware ADS-B
04:40PM 37.9341 -87.6990 264° West 457 526 32,000  Level FlightAware ADS-B
04:41PM 37.9250 -87.8006 263° West 457 526 32,000  Level FlightAware ADS-B
04:41PM 37.9133 -87.9253 263° West 456 525 32,000  Level FlightAware ADS-B
04:42PM 37.9020 -88.0435 263° West 455 524 32,000  Level FlightAware ADS-B
04:43PM 37.8903 -88.1670 263° West 454 522 32,000  Level FlightAware ADS-B
04:44PM 37.8810 -88.2636 263° West 453 521 32,000  Level FlightAware ADS-B
04:44PM 37.8724 -88.3521 263° West 453 521 32,000  Level FlightAware ADS-B
04:45PM 37.8619 -88.4591 263° West 452 520 32,000  Level FlightAware ADS-B
04:46PM 37.8489 -88.5898 263° West 453 521 32,000  Level FlightAware ADS-B
04:46PM 37.8407 -88.6719 263° West 453 521 32,000  Level FlightAware ADS-B
04:47PM 37.8301 -88.7777 263° West 453 521 32,000  Level FlightAware ADS-B
04:47PM 37.8254 -88.8252 263° West 453 521 32,000  Level FlightAware ADS-B
04:50PM 37.7841 -89.2232 263° West 434 499 32,000  Level FlightAware ADS-B
04:51PM 37.7664 -89.3908 263° West 435 501 32,000  Level Kansas City Center
04:55PM 37.7003 -89.9967 268° West 429 494 32,000  Level Kansas City Center
05:00PM 37.6572 -90.7433 267° West 427 491 32,000  Level Kansas City Center
05:01PM 37.6508 -90.9239 267° West 428 493 32,000  Level Kansas City Center
05:03PM 37.6397 -91.2169 267° West 430 495 32,000  Level Kansas City Center
05:04PM 37.6317 -91.2397 267° West  Level FlightAware Approximate
05:04PM 37.6328 -91.3989 267° West 431 496 32,000  Level Kansas City Center
05:05PM 37.6256 -91.3834 267° West  Level FlightAware Approximate
05:05PM 37.6264 -91.5514 267° West 432 497 32,000  Level Kansas City Center
05:06PM 37.6193 -91.5270 267° West  Level FlightAware Approximate
05:06PM 37.6200 -91.7044 267° West 433 498 32,000  Level Kansas City Center
05:07PM 37.6133 -91.8578 267° West 434 499 32,000  Level Kansas City Center
05:08PM 37.6067 -92.0114 267° West 435 501 32,000  Level Kansas City Center
05:09PM 37.5997 -92.1647 267° West 435 501 32,000  Level Kansas City Center
05:11PM 37.5850 -92.4719 267° West 434 499 32,000  Level Kansas City Center
05:12PM 37.5775 -92.6247 267° West 434 499 32,000  Level Kansas City Center
05:15PM 37.5600 -92.9606 270° West 433 498 32,000  Level Kansas City Center
05:16PM 37.5517 -93.1131 266° West 434 499 32,000 194 Level Kansas City Center
05:17PM 37.5433 -93.2658 266° West 434 499 32,400 484 Climbing Kansas City Center
05:18PM 37.5347 -93.4172 266° West 433 498 33,000 1,161 Climbing Kansas City Center
05:20PM 37.5175 -93.7125 266° West 420 483 36,000 726 Climbing Kansas City Center
05:22PM 37.4981 -94.0314 266° West 416 479 36,000  Level Kansas City Center
05:23PM 37.4894 -94.1806 266° West 415 478 36,000  Level Kansas City Center
05:24PM 37.4808 -94.3258 266° West 416 479 36,000  Level Kansas City Center
05:25PM 37.4719 -94.4708 266° West 416 479 36,000  Level Kansas City Center
05:26PM 37.4628 -94.6161 265° West 417 480 36,000  Level Kansas City Center
05:27PM 37.4536 -94.7619 266° West 417 480 36,000  Level Kansas City Center
05:28PM 37.4422 -94.9364 265° West 418 481 36,000  Level Kansas City Center
05:29PM 37.4328 -95.0819 265° West 418 481 36,000  Level Kansas City Center
05:31PM 37.4131 -95.3728 265° West 418 481 36,000  Level Kansas City Center
05:32PM 37.4028 -95.5181 265° West 418 481 36,000  Level Kansas City Center
05:33PM 37.3925 -95.6625 265° West 418 481 36,000  Level Kansas City Center
05:34PM 37.3800 -95.8353 265° West 418 481 36,000  Level Kansas City Center
05:35PM 37.3694 -95.9789 265° West 416 479 36,000  Level Kansas City Center
05:37PM 37.3475 -96.2658 263° West 414 476 36,000  Level Kansas City Center
05:38PM 37.3367 -96.4089 265° West 413 475 36,000  Level Kansas City Center
05:39PM 37.3253 -96.5542 264° West 412 474 36,000  Level Kansas City Center
05:40PM 37.3136 -96.6969 264° West 412 474 36,000  Level Kansas City Center
05:43PM 37.2758 -97.1550 264° West 412 474 36,000  Level Kansas City Center
05:45PM 37.2636 -97.2983 264° West 412 474 36,000  Level Kansas City Center
05:48PM 37.2258 -97.7294 265° West 414 476 36,000  Level Kansas City Center
05:49PM 37.2004 -97.8787 264° West  Level FlightAware Approximate
05:49PM 37.2100 -97.9036 264° West 416 479 36,000  Level Kansas City Center
05:50PM 37.1967 -98.0506 264° West 420 483 36,000  Level Kansas City Center
05:51PM 37.1828 -98.1989 263° West 424 488 36,000  Level Kansas City Center
05:52PM 37.1686 -98.3472 263° West 426 490 36,000  Level Kansas City Center
05:53PM 37.1544 -98.4958 263° West 427 491 36,000  Level Kansas City Center
05:54PM 37.1403 -98.6436 263° West 427 491 36,000  Level Kansas City Center
05:56PM 37.1100 -98.9464 263° West 428 493 36,000  Level Albuquerque Center
05:57PM 37.0942 -99.0931 262° West 427 491 36,000  Level Albuquerque Center
05:58PM 37.0772 -99.2722 263° West 428 493 36,000  Level Kansas City Center
06:00PM 37.0458 -99.5672 262° West 427 491 36,000  Level Albuquerque Center
06:01PM 37.0306 -99.7083 262° West 427 491 36,000  Level Albuquerque Center
06:02PM 37.0122 -99.8886 263° West 427 491 36,000  Level Kansas City Center
06:04PM 36.9847 -100.1817 263° West 432 497 36,000  Level Albuquerque Center
06:05PM 36.9728 -100.3233 264° West 430 495 36,000  Level Albuquerque Center
06:07PM 36.9458 -100.6294 263° West 427 491 36,000  Level Albuquerque Center
06:08PM 36.9311 -100.7939 264° West 426 490 36,000  Level Kansas City Center
06:09PM 36.9161 -100.9581 264° West 425 489 36,000  Level Kansas City Center
06:11PM 36.8903 -101.2383 264° West 424 488 36,000  Level Kansas City Center
06:12PM 36.8747 -101.4022 263° West 424 488 36,000  Level Kansas City Center
06:14PM 36.8611 -101.5431 263° West 425 489 36,000  Level Kansas City Center
06:15PM 36.8453 -101.7069 263° West 425 489 36,000  Level Kansas City Center
06:17PM 36.8175 -101.9872 263° West 425 489 36,000  Level Albuquerque Center
06:18PM 36.8011 -102.1469 263° West 417 480 36,000  Level Albuquerque Center
06:19PM 36.7883 -102.2747 263° West 414 476 36,000  Level Albuquerque Center
06:20PM 36.7736 -102.4144 263° West 410 472 36,000  Level Albuquerque Center
06:21PM 36.7569 -102.5750 263° West 407 468 36,000  Level Albuquerque Center
06:22PM 36.7428 -102.7067 262° West 404 465 36,000  Level Albuquerque Center
06:23PM 36.7264 -102.8594 262° West 400 460 36,000  Level Albuquerque Center
06:24PM 36.7125 -102.9889 262° West 396 456 36,000  Level Albuquerque Center
06:25PM 36.6961 -103.1386 262° West 393 452 36,000  Level Albuquerque Center
06:26PM 36.6819 -103.2658 262° West 390 449 36,000  Level Albuquerque Center
06:27PM 36.6653 -103.4142 262° West 389 448 36,000  Level Albuquerque Center
06:28PM 36.6506 -103.5439 262° West 389 448 36,000  Level Albuquerque Center
06:29PM 36.6350 -103.6794 262° West 391 450 36,000  Level Albuquerque Center
06:30PM 36.6189 -103.8169 262° West 403 464 36,000  Level Albuquerque Center
06:31PM 36.6028 -103.9561 262° West 403 464 36,000  Level Albuquerque Center
06:32PM 36.5861 -104.0978 262° West 408 470 36,000  Level Albuquerque Center
06:34PM 36.5494 -104.4014 261° West 407 468 36,000  Level Albuquerque Center
06:41PM 36.4096 -105.3545 258° West 404 465 36,000  Level FlightAware ADS-B
06:42PM 36.3863 -105.4894 258° West 404 465 36,000  Level FlightAware ADS-B
06:43PM 36.3620 -105.6288 258° West 403 464 36,000  Level FlightAware ADS-B
06:44PM 36.3367 -105.7738 258° West 399 459 36,000  Level FlightAware ADS-B
06:45PM 36.3130 -105.9081 258° West 397 457 36,000  Level FlightAware ADS-B
06:46PM 36.2881 -106.0482 258° West 395 455 36,000  Level FlightAware ADS-B
06:47PM 36.2648 -106.1790 258° West 396 456 36,000  Level FlightAware ADS-B
06:49PM 36.2141 -106.4594 258° West 396 456 36,000  Level FlightAware ADS-B
06:50PM 36.1933 -106.5735 257° West 396 456 36,000  Level FlightAware ADS-B
06:51PM 36.1638 -106.7341 257° West 395 455 36,000  Level FlightAware ADS-B
06:53PM 36.1388 -106.8692 257° West 394 453 36,000  Level FlightAware ADS-B
06:53PM 36.1206 -106.9672 257° West 391 450 36,000  Level FlightAware ADS-B
06:55PM 36.0890 -107.1356 257° West 388 447 36,000  Level FlightAware ADS-B
06:57PM 36.0388 -107.4001 257° West 383 441 36,000  Level FlightAware ADS-B
06:59PM 35.9876 -107.6650 257° West 399 459 36,000  Level FlightAware ADS-B
07:00PM 35.9602 -107.8091 257° West 401 461 36,000  Level FlightAware ADS-B
07:01PM 35.9326 -107.9505 256° West 394 453 36,000  Level FlightAware ADS-B
07:02PM 35.9052 -108.0900 256° West 393 452 36,000  Level FlightAware ADS-B
07:03PM 35.8792 -108.2215 256° West 389 448 36,000  Level FlightAware ADS-B
07:04PM 35.8536 -108.3505 256° West 389 448 36,000  Level FlightAware ADS-B
07:05PM 35.8271 -108.4832 256° West 392 451 36,000  Level FlightAware ADS-B
07:07PM 35.7707 -108.7624 256° West 397 457 36,000  Level FlightAware ADS-B
07:08PM 35.7433 -108.8965 256° West 400 460 36,000  Level FlightAware ADS-B
07:10PM 35.6874 -109.1681 256° West 402 463 36,000  Level FlightAware ADS-B
07:13PM 35.6008 -109.5823 256° West 402 463 36,000  Level FlightAware ADS-B
07:14PM 35.5724 -109.7164 255° West 402 463 36,000  Level FlightAware ADS-B
07:15PM 35.5427 -109.8559 255° West 402 463 36,000  Level FlightAware ADS-B
07:17PM 35.4966 -110.0711 255° West 404 465 36,000  Level FlightAware ADS-B
07:18PM 35.4569 -110.2547 255° West 404 465 36,000  Level FlightAware ADS-B
07:19PM 35.4358 -110.3508 255° West 404 465 36,000  Level FlightAware ADS-B
07:21PM 35.3681 -110.6594 255° West 404 465 36,000  Level FlightAware ADS-B
07:22PM 35.3419 -110.7675 255° West 402 463 36,000  Level Los Angeles Center
07:28PM 35.2537 -111.1708 255° West 400 460 36,000  Level FlightAware ADS-B (KPRC)
07:30PM 35.1064 -111.8132 254° West 407 468 36,000  Level FlightAware ADS-B (KPRC)
07:31PM 35.0836 -111.9117 254° West 408 470 36,000  Level FlightAware ADS-B (KPRC)
07:32PM 35.0622 -112.0035 254° West 410 472 36,000  Level FlightAware ADS-B (KPRC)
07:32PM 35.0415 -112.0921 254° West 411 473 36,000  Level FlightAware ADS-B (KPRC)
07:33PM 35.0255 -112.1603 254° West 410 472 36,000  Level FlightAware ADS-B (KPRC)
07:35PM 34.9679 -112.4030 254° West 403 464 36,000  Level FlightAware ADS-B (KPRC)
07:36PM 34.9372 -112.5321 254° West 401 461 36,000  Level FlightAware ADS-B (KPRC)
07:37PM 34.9068 -112.6587 254° West 397 457 36,000  Level FlightAware ADS-B (KPRC)
07:37PM 34.8886 -112.7345 254° West 397 457 36,000  Level FlightAware ADS-B (KPRC)
07:40PM 34.8001 -113.0990 254° West 399 459 36,000  Level FlightAware ADS-B (KPRC)
07:41PM 34.7832 -113.1681 253° West 400 460 36,000  Level FlightAware ADS-B (KPRC)
07:41PM 34.7736 -113.2053 253° West 395 455 36,000  Level Los Angeles Center
07:42PM 34.7350 -113.3608 253° West 398 458 36,000  Level Los Angeles Center
07:43PM 34.7094 -113.4664 254° West 399 459 36,000  Level Albuquerque Center
07:44PM 34.6711 -113.6214 253° West 400 460 36,000  Level Albuquerque Center
07:45PM 34.6422 -113.7364 253° West 400 460 36,000  Level Albuquerque Center
07:46PM 34.6031 -113.8919 253° West 401 461 36,000  Level Albuquerque Center
07:47PM 34.5703 -114.0219 253° West 406 467 36,000  Level Albuquerque Center
07:48PM 34.5375 -114.1517 253° West 397 457 36,000 -47 Level Los Angeles Center
07:49PM 34.5000 -114.2958 253° West 397 457 35,900  Descending Los Angeles Center
07:50PM 34.4664 -114.4233 252° West 397 457 36,000 -802 Climbing Los Angeles Center
07:52PM 34.4003 -114.6797 253° West 399 459 33,400 -795 Descending Los Angeles Center
07:58PM 34.2179 -115.4756 254° West 420 483 29,800 -743 Descending FlightAware ADS-B (KBNG)
08:00PM 34.1726 -115.6702 255° West 433 498 28,100 -1,581 Descending FlightAware ADS-B (KBNG)
08:00PM 34.1482 -115.7738 254° West 440 506 26,400 -1,780 Descending FlightAware ADS-B (KBNG)
08:01PM 34.1218 -115.8855 254° West 445 512 25,400 -1,097 Descending FlightAware ADS-B (KBNG)
08:02PM 34.0952 -115.9979 254° West 451 519 24,700 -621 Descending FlightAware ADS-B (KBNG)
08:03PM 34.0585 -116.1519 254° West 379 436 24,200 -396 Descending FlightAware ADS-B (KBNG)
08:04PM 34.0420 -116.2207 254° West 379 436 24,000 -727 Descending FlightAware ADS-B (KBNG)
08:04PM 34.0263 -116.2861 254° West 385 443 23,400 -985 Descending FlightAware ADS-B (KBNG)
08:05PM 34.0084 -116.3614 254° West 380 437 22,900 -1,437 Descending FlightAware ADS-B (KBNG)
08:05PM 33.9917 -116.4295 254° West 375 432 21,700 -2,137 Descending FlightAware ADS-B (KBNG)
08:06PM 33.9747 -116.5008 254° West 369 425 20,300 -2,137 Descending FlightAware ADS-B (KBNG)
08:07PM 33.9576 -116.5708 254° West 364 419 19,100 -2,063 Descending FlightAware ADS-B (KBNG)
08:07PM 33.9436 -116.6286 254° West 361 415 18,100 -2,100 Descending FlightAware ADS-B (KBNG)
08:08PM 33.9292 -116.6878 254° West 359 413 17,000 -2,174 Descending FlightAware ADS-B (KBNG)
08:08PM 33.9105 -116.7640 254° West 354 407 15,600 -1,929 Descending FlightAware ADS-B (KBNG)
08:09PM 33.9046 -116.7883 254° West 352 405 15,200 -1,660 Descending FlightAware ADS-B
08:09PM 33.8912 -116.8415 253° West 347 399 14,300 -1,672 Descending FlightAware ADS-B
08:10PM 33.8796 -116.9071 259° West 336 387 13,500 -1,180 Descending FlightAware ADS-B (KBNG)
08:10PM 33.8715 -116.9592 259° West 328 377 13,100 -896 Descending FlightAware ADS-B (KBNG)
08:11PM 33.8599 -117.0283 258° West 329 379 12,500 -882 Descending FlightAware ADS-B (KBNG)
08:11PM 33.8529 -117.0691 259° West 333 383 12,100 -885 Descending FlightAware ADS-B (KBNG)
08:12PM 33.8410 -117.1387 258° West 329 379 11,600 -938 Descending FlightAware ADS-B (KBNG)
08:12PM 33.8317 -117.1931 258° West 327 376 11,100 -1,015 Descending FlightAware ADS-B
08:13PM 33.8248 -117.2336 258° West 285 328 10,500 -913 Descending FlightAware ADS-B (KBNG)
08:13PM 33.8189 -117.2677 258° West 282 325 10,400 -652 Descending FlightAware ADS-B
08:14PM 33.8119 -117.3094 258° West 280 322 10,000 -1,038 Descending FlightAware ADS-B
08:14PM 33.8046 -117.3517 259° West 283 326 9,500 -1,024 Descending FlightAware ADS-B
08:14PM 33.7994 -117.3829 259° West 275 316 9,300 -571 Descending FlightAware ADS-B
08:14PM 33.8008 -117.3746 258° West 277 319 9,300 -1,200 Level FlightAware ADS-B
08:14PM 33.7962 -117.4008 259° West 272 313 9,000 -857 Descending FlightAware ADS-B
08:15PM 33.7949 -117.4088 259° West 271 312 9,000 -800 Level FlightAware ADS-B
08:15PM 33.7916 -117.4275 259° West 262 302 8,800 -1,125 Descending FlightAware ADS-B
08:15PM 33.7909 -117.4315 258° West 262 302 8,700 -600 Descending FlightAware ADS-B
08:15PM 33.7868 -117.4552 259° West 242 278 8,600  Descending FlightAware ADS-B
08:15PM 33.7878 -117.4491 259° West 245 282 8,700 -375 Climbing FlightAware ADS-B
08:15PM 33.7835 -117.4742 259° West 238 274 8,500 -900 Descending FlightAware ADS-B
08:15PM 33.7823 -117.4814 259° West 241 277 8,400 -400 Descending FlightAware ADS-B
08:16PM 33.7805 -117.4941 263° West 244 281 8,400 -273 Level FlightAware ADS-B
08:16PM 33.7798 -117.5062 268° West 247 284 8,300 -429 Descending FlightAware ADS-B
08:16PM 33.7797 -117.5143 270° West 248 285 8,300 -706 Level FlightAware ADS-B
08:16PM 33.7798 -117.5336 271° West 246 283 8,100 -600 Descending FlightAware ADS-B
08:16PM 33.7799 -117.5557 271° West 242 278 8,000 -286 Descending FlightAware ADS-B
08:16PM 33.7800 -117.5576 271° West 242 278 8,000 -1,200 Level FlightAware ADS-B
08:17PM 33.7802 -117.5758 271° West 242 278 7,700 -1,143 Descending FlightAware ADS-B
08:17PM 33.7803 -117.5867 271° West 242 278 7,600 -923 Descending FlightAware ADS-B
08:17PM 33.7803 -117.5920 271° West 240 276 7,500 -947 Descending FlightAware ADS-B
08:17PM 33.7803 -117.6156 269° West 232 267 7,300 -545 Descending FlightAware ADS-B
08:17PM 33.7794 -117.6215 257° West 228 262 7,300 -667 Level FlightAware ADS-B
08:17PM 33.7779 -117.6273 252° West 226 260 7,200  Descending FlightAware ADS-B
08:17PM 33.7788 -117.6242 253° West 228 262 7,300 -333 Climbing FlightAware ADS-B
08:17PM 33.7713 -117.6465 247° West 218 251 7,100 -667 Descending FlightAware ADS-B
08:18PM 33.7701 -117.6498 247° West 214 246 7,100 -706 Level FlightAware ADS-B
08:18PM 33.7643 -117.6660 247° West 210 242 6,900 -571 Descending FlightAware ADS-B
08:18PM 33.7647 -117.6649 247° West 211 243 6,900 -1,286 Level FlightAware ADS-B
08:18PM 33.7592 -117.6805 248° West 209 241 6,600 -1,765 Descending FlightAware ADS-B
08:18PM 33.7554 -117.6911 247° West 209 241 6,400 -1,125 Descending FlightAware ADS-B
08:18PM 33.7531 -117.6980 248° West 209 241 6,300 -1,200 Descending FlightAware ADS-B
08:18PM 33.7479 -117.7127 247° West 209 241 6,000 -1,200 Descending FlightAware ADS-B
08:19PM 33.7476 -117.7137 248° West 209 241 6,000 -1,059 Level FlightAware ADS-B
08:19PM 33.7419 -117.7306 249° West 211 243 5,700 -632 Descending FlightAware ADS-B
08:19PM 33.7420 -117.7301 248° West 211 243 5,800 -1,200 Climbing FlightAware ADS-B
08:19PM 33.7364 -117.7471 249° West 212 244 5,400 -1,895 Descending FlightAware ADS-B
08:19PM 33.7334 -117.7559 248° West 212 244 5,200 -1,200 Descending FlightAware ADS-B
08:19PM 33.7307 -117.7635 248° West 211 243 5,100 -400 Descending FlightAware ADS-B
08:19PM 33.7304 -117.7643 247° West 211 243 5,100 -800 Level FlightAware ADS-B
08:20PM 33.7250 -117.7796 247° West 209 241 4,900 -706 Descending FlightAware ADS-B
08:20PM 33.7238 -117.7828 247° West 208 239 4,900 -1,125 Level FlightAware ADS-B
08:20PM 33.7196 -117.7946 247° West 206 237 4,600 -1,429 Descending FlightAware ADS-B
08:20PM 33.7138 -117.8110 248° West 204 235 4,400 -900 Descending FlightAware ADS-B
08:20PM 33.7130 -117.8132 247° West 205 236 4,300 -1,286 Descending FlightAware ADS-B
08:20PM 33.7082 -117.8269 248° West 203 234 4,100 -1,000 Descending FlightAware ADS-B
08:20PM 33.7051 -117.8356 247° West 203 234 4,000 -286 Descending FlightAware ADS-B
08:21PM 33.7011 -117.8480 253° West 200 230 4,000  Level FlightAware ADS-B
08:21PM 33.7001 -117.8527 259° West 200 230 4,000  Level FlightAware ADS-B
08:21PM 33.7034 -117.8405 262° West 201 231 4,000  Level FlightAware ADS-B
08:21PM 33.6982 -117.8695 264° West 202 232 4,000  Level FlightAware ADS-B
08:21PM 33.6969 -117.8829 264° West 203 234 4,000  Level FlightAware ADS-B
08:21PM 33.6966 -117.8867 264° West 202 232 4,000 -632 Level FlightAware ADS-B
08:21PM 33.6950 -117.9022 263° West 199 229 3,800 -828 Descending FlightAware ADS-B
08:22PM 33.6936 -117.9194 270° West 198 228 3,600 -1,200 Descending FlightAware ADS-B
08:22PM 33.6936 -117.9201 271° West 198 228 3,500 -1,000 Descending FlightAware ADS-B
08:22PM 33.6938 -117.9243 278° West 198 228 3,500 -1,059 Level FlightAware ADS-B
08:22PM 33.6962 -117.9380 284° West 200 230 3,200 -1,200 Descending FlightAware ADS-B
08:22PM 33.6968 -117.9411 285° West 200 230 3,200 -706 Level FlightAware ADS-B
08:22PM 33.7002 -117.9571 285° West 195 224 3,000 -706 Descending FlightAware ADS-B
08:22PM 33.7008 -117.9598 284° West 189 217 3,000 -800 Level FlightAware ADS-B
08:23PM 33.7034 -117.9717 285° West 174 200 2,800 -563 Descending FlightAware ADS-B
08:23PM 33.7067 -117.9868 285° West 144 166 2,700 -207 Descending FlightAware ADS-B
08:23PM 33.7084 -117.9948 285° West 140 161 2,700 -300 Level FlightAware ADS-B
08:23PM 33.7104 -118.0037 286° West 139 160 2,600 -300 Descending FlightAware ADS-B
08:23PM 33.7119 -118.0101 286° West 138 159 2,600 -300 Level FlightAware ADS-B
08:24PM 33.7138 -118.0183 286° West 138 159 2,500 -375 Descending FlightAware ADS-B
08:24PM 33.7147 -118.0218 288° West 140 161 2,500  Level FlightAware ADS-B
08:24PM 33.7173 -118.0281 305° West 141 162 2,500 -240 Level FlightAware ADS-B
08:24PM 33.7237 -118.0376 312° West 142 163 2,400 -300 Descending FlightAware ADS-B
08:24PM 33.7261 -118.0408 313° West 141 162 2,400 -632 Level FlightAware ADS-B
08:24PM 33.7327 -118.0490 315° West 144 166 2,200 -1,000 Descending FlightAware ADS-B
08:24PM 33.7341 -118.0507 316° Northwest 142 163 2,100 -857 Descending FlightAware ADS-B
08:25PM 33.7427 -118.0609 316° Northwest 142 163 1,900 -649 Descending FlightAware ADS-B
08:25PM 33.7521 -118.0718 315° West 140 161 1,700 -783 Descending FlightAware ADS-B
08:25PM 33.7532 -118.0732 314° West 141 162 1,600 -750 Descending FlightAware ADS-B
08:25PM 33.7589 -118.0804 314° West 142 163 1,500 -571 Descending FlightAware ADS-B
08:25PM 33.7631 -118.0855 315° West 143 165 1,400 -857 Descending FlightAware ADS-B
08:26PM 33.7659 -118.0889 314° West 142 163 1,300 -857 Descending FlightAware ADS-B
08:26PM 33.7729 -118.0970 316° Northwest 142 163 1,100 -686 Descending FlightAware ADS-B
08:26PM 33.7790 -118.1043 316° Northwest 143 165 900 -750 Descending FlightAware ADS-B
08:26PM 33.7902 -118.1180 315° West 141 162 600 -789 Descending FlightAware ADS-B
08:27PM 33.7995 -118.1293 316° Northwest 134 154 400 -492 Descending FlightAware ADS-B
08:27PM 33.8164 -118.1497 315° West 76 87 100 -419 Descending FlightAware ADS-B